sensor_id;sensor_type;location;lat;lon;timestamp;temperature;humidity
21338;DHT22;10827;50.878;4.382;2022-07-23T00:01:30;19.40;96.40
21338;DHT22;10827;50.878;4.382;2022-07-23T00:03:56;19.30;93.60
21338;DHT22;10827;50.878;4.382;2022-07-23T00:06:22;19.30;96.90
21338;DHT22;10827;50.878;4.382;2022-07-23T00:08:48;19.70;88.00
21338;DHT22;10827;50.878;4.382;2022-07-23T00:11:14;19.80;75.90
21338;DHT22;10827;50.878;4.382;2022-07-23T00:16:06;19.90;60.80
21338;DHT22;10827;50.878;4.382;2022-07-23T00:25:51;19.50;93.70
21338;DHT22;10827;50.878;4.382;2022-07-23T00:28:17;18.70;99.90
21338;DHT22;10827;50.878;4.382;2022-07-23T00:33:11;18.50;99.00
21338;DHT22;10827;50.878;4.382;2022-07-23T00:35:39;18.60;99.90
21338;DHT22;10827;50.878;4.382;2022-07-23T00:38:09;18.80;97.50
21338;DHT22;10827;50.878;4.382;2022-07-23T00:40:36;19.60;98.50
21338;DHT22;10827;50.878;4.382;2022-07-23T00:43:03;18.40;99.90
21338;DHT22;10827;50.878;4.382;2022-07-23T00:45:29;18.40;99.90
21338;DHT22;10827;50.878;4.382;2022-07-23T00:47:55;18.90;99.90
21338;DHT22;10827;50.878;4.382;2022-07-23T00:50:20;19.20;99.00
21338;DHT22;10827;50.878;4.382;2022-07-23T00:52:47;19.40;80.80
21338;DHT22;10827;50.878;4.382;2022-07-23T00:55:13;19.40;74.10
21338;DHT22;10827;50.878;4.382;2022-07-23T00:57:40;19.20;88.10
21338;DHT22;10827;50.878;4.382;2022-07-23T01:00:09;18.60;99.90
21338;DHT22;10827;50.878;4.382;2022-07-23T01:02:36;18.70;99.90
21338;DHT22;10827;50.878;4.382;2022-07-23T01:05:02;18.80;99.90
21338;DHT22;10827;50.878;4.382;2022-07-23T01:09:55;18.60;99.90
21338;DHT22;10827;50.878;4.382;2022-07-23T01:12:20;18.60;99.90
21338;DHT22;10827;50.878;4.382;2022-07-23T01:14:56;18.60;99.90
21338;DHT22;10827;50.878;4.382;2022-07-23T01:17:22;19.10;97.40
21338;DHT22;10827;50.878;4.382;2022-07-23T01:19:49;19.10;93.80
21338;DHT22;10827;50.878;4.382;2022-07-23T01:22:15;19.40;90.60
21338;DHT22;10827;50.878;4.382;2022-07-23T01:24:44;19.30;91.10
21338;DHT22;10827;50.878;4.382;2022-07-23T01:29:35;19.10;93.50
21338;DHT22;10827;50.878;4.382;2022-07-23T01:32:01;18.90;95.80
21338;DHT22;10827;50.878;4.382;2022-07-23T01:34:27;18.60;99.90
21338;DHT22;10827;50.878;4.382;2022-07-23T01:39:18;18.30;99.90
21338;DHT22;10827;50.878;4.382;2022-07-23T01:41:44;18.50;99.90
21338;DHT22;10827;50.878;4.382;2022-07-23T01:44:10;18.30;99.90
21338;DHT22;10827;50.878;4.382;2022-07-23T01:46:38;18.40;99.90
21338;DHT22;10827;50.878;4.382;2022-07-23T01:49:04;18.30;99.90
21338;DHT22;10827;50.878;4.382;2022-07-23T01:51:29;18.70;99.90
21338;DHT22;10827;50.878;4.382;2022-07-23T01:53:55;18.40;99.90
21338;DHT22;10827;50.878;4.382;2022-07-23T01:56:21;18.40;99.90
21338;DHT22;10827;50.878;4.382;2022-07-23T01:58:48;18.00;99.90
21338;DHT22;10827;50.878;4.382;2022-07-23T02:01:14;18.00;99.90
21338;DHT22;10827;50.878;4.382;2022-07-23T02:03:39;18.30;99.90
21338;DHT22;10827;50.878;4.382;2022-07-23T02:08:31;18.70;99.90
21338;DHT22;10827;50.878;4.382;2022-07-23T02:10:57;16.10;96.80
21338;DHT22;10827;50.878;4.382;2022-07-23T02:15:48;18.80;99.10
21338;DHT22;10827;50.878;4.382;2022-07-23T02:18:14;18.90;95.20
21338;DHT22;10827;50.878;4.382;2022-07-23T02:20:41;18.70;96.70
21338;DHT22;10827;50.878;4.382;2022-07-23T02:23:07;18.60;99.10
21338;DHT22;10827;50.878;4.382;2022-07-23T02:25:33;18.50;99.90
21338;DHT22;10827;50.878;4.382;2022-07-23T02:27:59;18.10;99.90
21338;DHT22;10827;50.878;4.382;2022-07-23T02:30:25;18.00;99.90
21338;DHT22;10827;50.878;4.382;2022-07-23T02:32:51;18.00;99.90
21338;DHT22;10827;50.878;4.382;2022-07-23T02:35:17;17.70;99.90
21338;DHT22;10827;50.878;4.382;2022-07-23T02:37:43;18.10;99.90
21338;DHT22;10827;50.878;4.382;2022-07-23T02:40:09;17.90;99.90
21338;DHT22;10827;50.878;4.382;2022-07-23T02:42:35;17.80;99.90
21338;DHT22;10827;50.878;4.382;2022-07-23T02:45:00;18.20;99.90
21338;DHT22;10827;50.878;4.382;2022-07-23T02:49:52;18.40;99.90
21338;DHT22;10827;50.878;4.382;2022-07-23T02:52:18;18.50;99.30
21338;DHT22;10827;50.878;4.382;2022-07-23T02:54:44;18.10;99.90
21338;DHT22;10827;50.878;4.382;2022-07-23T02:57:09;17.90;99.90
21338;DHT22;10827;50.878;4.382;2022-07-23T02:59:35;17.70;99.90
21338;DHT22;10827;50.878;4.382;2022-07-23T03:02:02;18.30;99.90
21338;DHT22;10827;50.878;4.382;2022-07-23T03:04:27;18.40;99.90
21338;DHT22;10827;50.878;4.382;2022-07-23T03:06:53;18.30;99.90
21338;DHT22;10827;50.878;4.382;2022-07-23T03:09:19;18.20;99.90
21338;DHT22;10827;50.878;4.382;2022-07-23T03:11:44;18.10;99.90
21338;DHT22;10827;50.878;4.382;2022-07-23T03:14:10;18.00;99.90
21338;DHT22;10827;50.878;4.382;2022-07-23T03:16:38;18.10;99.90
21338;DHT22;10827;50.878;4.382;2022-07-23T03:26:22;18.00;99.90
21338;DHT22;10827;50.878;4.382;2022-07-23T03:28:50;18.00;99.90
21338;DHT22;10827;50.878;4.382;2022-07-23T03:31:16;18.30;99.90
21338;DHT22;10827;50.878;4.382;2022-07-23T03:33:42;18.10;99.90
21338;DHT22;10827;50.878;4.382;2022-07-23T03:36:08;17.60;99.90
21338;DHT22;10827;50.878;4.382;2022-07-23T03:38:35;17.50;99.90
21338;DHT22;10827;50.878;4.382;2022-07-23T03:41:01;17.40;99.90
21338;DHT22;10827;50.878;4.382;2022-07-23T03:45:53;17.10;99.90
21338;DHT22;10827;50.878;4.382;2022-07-23T03:48:19;17.60;99.90
21338;DHT22;10827;50.878;4.382;2022-07-23T03:50:45;17.70;99.90
21338;DHT22;10827;50.878;4.382;2022-07-23T03:53:10;17.80;99.90
21338;DHT22;10827;50.878;4.382;2022-07-23T03:55:36;18.00;99.90
21338;DHT22;10827;50.878;4.382;2022-07-23T03:58:02;17.60;99.90
21338;DHT22;10827;50.878;4.382;2022-07-23T04:00:27;17.70;99.90
21338;DHT22;10827;50.878;4.382;2022-07-23T04:02:53;17.70;99.90
21338;DHT22;10827;50.878;4.382;2022-07-23T04:05:19;17.70;99.90
21338;DHT22;10827;50.878;4.382;2022-07-23T04:07:45;17.80;99.90
21338;DHT22;10827;50.878;4.382;2022-07-23T04:10:10;18.00;99.90
21338;DHT22;10827;50.878;4.382;2022-07-23T04:12:36;18.00;99.90
21338;DHT22;10827;50.878;4.382;2022-07-23T04:15:02;18.00;99.90
21338;DHT22;10827;50.878;4.382;2022-07-23T04:19:54;18.10;99.90
21338;DHT22;10827;50.878;4.382;2022-07-23T04:24:45;18.10;99.90
21338;DHT22;10827;50.878;4.382;2022-07-23T04:27:11;18.30;99.90
21338;DHT22;10827;50.878;4.382;2022-07-23T04:29:37;18.00;99.90
21338;DHT22;10827;50.878;4.382;2022-07-23T04:32:03;17.90;99.90
21338;DHT22;10827;50.878;4.382;2022-07-23T04:34:29;17.90;99.90
21338;DHT22;10827;50.878;4.382;2022-07-23T04:36:55;17.70;99.90
21338;DHT22;10827;50.878;4.382;2022-07-23T04:39:21;17.70;99.90
21338;DHT22;10827;50.878;4.382;2022-07-23T04:41:47;17.70;99.90
21338;DHT22;10827;50.878;4.382;2022-07-23T04:44:12;17.90;99.90
21338;DHT22;10827;50.878;4.382;2022-07-23T04:46:38;17.80;99.90
21338;DHT22;10827;50.878;4.382;2022-07-23T04:49:04;17.80;99.90
21338;DHT22;10827;50.878;4.382;2022-07-23T04:51:30;18.00;99.90
21338;DHT22;10827;50.878;4.382;2022-07-23T04:53:56;17.50;99.90
21338;DHT22;10827;50.878;4.382;2022-07-23T04:56:22;17.10;99.90
21338;DHT22;10827;50.878;4.382;2022-07-23T04:58:47;18.10;99.90
21338;DHT22;10827;50.878;4.382;2022-07-23T05:01:14;17.60;99.90
21338;DHT22;10827;50.878;4.382;2022-07-23T05:03:39;17.60;99.90
21338;DHT22;10827;50.878;4.382;2022-07-23T05:06:05;17.30;99.90
21338;DHT22;10827;50.878;4.382;2022-07-23T05:08:31;17.70;99.90
21338;DHT22;10827;50.878;4.382;2022-07-23T05:10:57;17.80;99.90
21338;DHT22;10827;50.878;4.382;2022-07-23T05:13:23;17.50;99.90
21338;DHT22;10827;50.878;4.382;2022-07-23T05:15:48;17.80;99.90
21338;DHT22;10827;50.878;4.382;2022-07-23T05:18:14;17.80;99.90
21338;DHT22;10827;50.878;4.382;2022-07-23T05:20:40;17.80;99.90
21338;DHT22;10827;50.878;4.382;2022-07-23T05:23:07;17.70;99.90
21338;DHT22;10827;50.878;4.382;2022-07-23T05:25:33;18.50;99.90
21338;DHT22;10827;50.878;4.382;2022-07-23T05:27:59;18.70;99.90
21338;DHT22;10827;50.878;4.382;2022-07-23T05:30:25;18.90;93.30
21338;DHT22;10827;50.878;4.382;2022-07-23T05:35:16;18.90;97.80
21338;DHT22;10827;50.878;4.382;2022-07-23T05:40:09;18.30;99.90
21338;DHT22;10827;50.878;4.382;2022-07-23T05:42:36;17.90;99.90
21338;DHT22;10827;50.878;4.382;2022-07-23T05:45:03;18.00;99.90
21338;DHT22;10827;50.878;4.382;2022-07-23T05:47:29;17.70;99.90
21338;DHT22;10827;50.878;4.382;2022-07-23T05:50:04;17.80;99.90
21338;DHT22;10827;50.878;4.382;2022-07-23T05:52:29;17.80;99.90
21338;DHT22;10827;50.878;4.382;2022-07-23T05:54:55;17.90;99.90
21338;DHT22;10827;50.878;4.382;2022-07-23T05:57:21;17.80;99.90
21338;DHT22;10827;50.878;4.382;2022-07-23T05:59:46;17.70;99.90
21338;DHT22;10827;50.878;4.382;2022-07-23T06:02:12;17.80;99.90
21338;DHT22;10827;50.878;4.382;2022-07-23T06:04:38;17.80;99.90
21338;DHT22;10827;50.878;4.382;2022-07-23T06:07:03;17.90;99.90
21338;DHT22;10827;50.878;4.382;2022-07-23T06:09:29;17.90;99.90
21338;DHT22;10827;50.878;4.382;2022-07-23T06:11:55;18.20;99.90
21338;DHT22;10827;50.878;4.382;2022-07-23T06:14:21;18.30;99.90
21338;DHT22;10827;50.878;4.382;2022-07-23T06:16:47;18.30;99.90
21338;DHT22;10827;50.878;4.382;2022-07-23T06:19:12;18.00;99.90
21338;DHT22;10827;50.878;4.382;2022-07-23T06:21:38;18.10;99.90
21338;DHT22;10827;50.878;4.382;2022-07-23T06:24:04;18.00;99.90
21338;DHT22;10827;50.878;4.382;2022-07-23T06:26:30;18.20;99.90
21338;DHT22;10827;50.878;4.382;2022-07-23T06:28:55;18.50;99.90
21338;DHT22;10827;50.878;4.382;2022-07-23T06:31:21;18.60;99.90
21338;DHT22;10827;50.878;4.382;2022-07-23T06:33:47;18.80;99.90
21338;DHT22;10827;50.878;4.382;2022-07-23T06:36:12;19.00;99.90
21338;DHT22;10827;50.878;4.382;2022-07-23T06:38:38;19.00;99.90
21338;DHT22;10827;50.878;4.382;2022-07-23T06:41:04;18.70;99.90
21338;DHT22;10827;50.878;4.382;2022-07-23T06:43:30;18.70;99.90
21338;DHT22;10827;50.878;4.382;2022-07-23T06:45:56;18.70;96.90
21338;DHT22;10827;50.878;4.382;2022-07-23T06:50:48;18.70;95.10
21338;DHT22;10827;50.878;4.382;2022-07-23T06:55:40;18.80;99.90
21338;DHT22;10827;50.878;4.382;2022-07-23T06:58:06;18.90;99.90
21338;DHT22;10827;50.878;4.382;2022-07-23T07:00:31;18.90;99.90
21338;DHT22;10827;50.878;4.382;2022-07-23T07:02:58;19.10;99.90
21338;DHT22;10827;50.878;4.382;2022-07-23T07:05:24;19.20;99.50
21338;DHT22;10827;50.878;4.382;2022-07-23T07:07:55;19.40;99.20
21338;DHT22;10827;50.878;4.382;2022-07-23T07:10:21;20.20;86.30
21338;DHT22;10827;50.878;4.382;2022-07-23T07:12:47;20.00;78.70
21338;DHT22;10827;50.878;4.382;2022-07-23T07:15:14;20.10;81.00
21338;DHT22;10827;50.878;4.382;2022-07-23T07:17:44;19.80;90.00
21338;DHT22;10827;50.878;4.382;2022-07-23T07:20:10;19.90;89.10
21338;DHT22;10827;50.878;4.382;2022-07-23T07:22:35;19.60;94.10
21338;DHT22;10827;50.878;4.382;2022-07-23T07:25:01;19.60;92.70
21338;DHT22;10827;50.878;4.382;2022-07-23T07:27:28;19.60;91.90
21338;DHT22;10827;50.878;4.382;2022-07-23T07:29:54;19.70;92.10
21338;DHT22;10827;50.878;4.382;2022-07-23T07:34:45;19.70;91.10
21338;DHT22;10827;50.878;4.382;2022-07-23T07:37:11;20.20;90.50
21338;DHT22;10827;50.878;4.382;2022-07-23T07:39:37;20.30;88.00
21338;DHT22;10827;50.878;4.382;2022-07-23T07:42:03;20.20;80.80
21338;DHT22;10827;50.878;4.382;2022-07-23T07:46:55;20.20;56.50
21338;DHT22;10827;50.878;4.382;2022-07-23T07:49:20;20.30;67.40
21338;DHT22;10827;50.878;4.382;2022-07-23T07:51:47;20.40;67.30
21338;DHT22;10827;50.878;4.382;2022-07-23T07:54:13;20.60;62.10
21338;DHT22;10827;50.878;4.382;2022-07-23T07:56:38;20.80;48.10
21338;DHT22;10827;50.878;4.382;2022-07-23T07:59:07;21.00;63.50
21338;DHT22;10827;50.878;4.382;2022-07-23T08:01:33;20.70;57.00
21338;DHT22;10827;50.878;4.382;2022-07-23T08:03:59;20.80;43.50
21338;DHT22;10827;50.878;4.382;2022-07-23T08:06:25;21.10;48.20
21338;DHT22;10827;50.878;4.382;2022-07-23T08:08:50;21.10;48.80
21338;DHT22;10827;50.878;4.382;2022-07-23T08:11:16;21.00;43.20
21338;DHT22;10827;50.878;4.382;2022-07-23T08:13:43;21.00;48.60
21338;DHT22;10827;50.878;4.382;2022-07-23T08:16:10;21.00;39.00
21338;DHT22;10827;50.878;4.382;2022-07-23T08:18:36;21.30;38.10
21338;DHT22;10827;50.878;4.382;2022-07-23T08:21:02;21.10;31.10
21338;DHT22;10827;50.878;4.382;2022-07-23T08:23:31;21.30;22.80
21338;DHT22;10827;50.878;4.382;2022-07-23T08:25:56;21.30;16.20
21338;DHT22;10827;50.878;4.382;2022-07-23T08:28:23;21.20;17.80
21338;DHT22;10827;50.878;4.382;2022-07-23T08:30:48;21.40;14.30
21338;DHT22;10827;50.878;4.382;2022-07-23T08:33:16;21.40;10.90
21338;DHT22;10827;50.878;4.382;2022-07-23T08:35:47;21.60;7.20
21338;DHT22;10827;50.878;4.382;2022-07-23T08:38:16;21.50;9.70
21338;DHT22;10827;50.878;4.382;2022-07-23T08:40:47;21.50;11.80
21338;DHT22;10827;50.878;4.382;2022-07-23T08:43:21;21.40;1.00
21338;DHT22;10827;50.878;4.382;2022-07-23T08:45:50;21.30;1.00
21338;DHT22;10827;50.878;4.382;2022-07-23T08:48:25;21.70;1.00
21338;DHT22;10827;50.878;4.382;2022-07-23T08:50:56;22.00;1.00
21338;DHT22;10827;50.878;4.382;2022-07-23T08:53:24;21.80;1.00
21338;DHT22;10827;50.878;4.382;2022-07-23T08:55:55;21.70;1.00
21338;DHT22;10827;50.878;4.382;2022-07-23T08:58:22;21.90;1.00
21338;DHT22;10827;50.878;4.382;2022-07-23T09:00:48;22.50;1.00
21338;DHT22;10827;50.878;4.382;2022-07-23T09:05:53;21.60;1.00
21338;DHT22;10827;50.878;4.382;2022-07-23T09:08:23;21.60;1.00
21338;DHT22;10827;50.878;4.382;2022-07-23T09:11:00;21.90;1.00
21338;DHT22;10827;50.878;4.382;2022-07-23T09:16:17;21.90;1.00
21338;DHT22;10827;50.878;4.382;2022-07-23T09:21:20;21.70;1.00
21338;DHT22;10827;50.878;4.382;2022-07-23T09:24:07;21.80;1.00
21338;DHT22;10827;50.878;4.382;2022-07-23T09:29:22;22.60;1.00
21338;DHT22;10827;50.878;4.382;2022-07-23T09:36:47;22.60;1.00
21338;DHT22;10827;50.878;4.382;2022-07-23T09:39:14;22.40;1.00
21338;DHT22;10827;50.878;4.382;2022-07-23T09:41:46;22.50;1.00
21338;DHT22;10827;50.878;4.382;2022-07-23T09:46:45;23.20;1.00
21338;DHT22;10827;50.878;4.382;2022-07-23T09:49:20;22.80;1.00
21338;DHT22;10827;50.878;4.382;2022-07-23T09:51:56;23.00;1.00
21338;DHT22;10827;50.878;4.382;2022-07-23T09:56:51;22.80;1.00
21338;DHT22;10827;50.878;4.382;2022-07-23T09:59:17;23.30;1.00
21338;DHT22;10827;50.878;4.382;2022-07-23T10:01:44;23.30;1.00
21338;DHT22;10827;50.878;4.382;2022-07-23T10:04:14;23.30;1.00
21338;DHT22;10827;50.878;4.382;2022-07-23T10:06:41;23.20;1.00
21338;DHT22;10827;50.878;4.382;2022-07-23T10:09:12;23.30;1.00
21338;DHT22;10827;50.878;4.382;2022-07-23T10:11:38;23.60;1.00
21338;DHT22;10827;50.878;4.382;2022-07-23T10:14:04;24.00;1.00
21338;DHT22;10827;50.878;4.382;2022-07-23T10:16:31;23.70;1.00
21338;DHT22;10827;50.878;4.382;2022-07-23T10:18:57;23.60;1.00
21338;DHT22;10827;50.878;4.382;2022-07-23T10:21:49;23.70;1.00
21338;DHT22;10827;50.878;4.382;2022-07-23T10:24:18;23.90;1.00
21338;DHT22;10827;50.878;4.382;2022-07-23T10:27:02;24.20;1.00
21338;DHT22;10827;50.878;4.382;2022-07-23T10:29:54;24.30;1.00
21338;DHT22;10827;50.878;4.382;2022-07-23T10:37:47;24.20;1.00
21338;DHT22;10827;50.878;4.382;2022-07-23T10:40:17;24.40;99.90
21338;DHT22;10827;50.878;4.382;2022-07-23T10:42:45;24.50;99.90
21338;DHT22;10827;50.878;4.382;2022-07-23T10:45:32;24.50;99.90
21338;DHT22;10827;50.878;4.382;2022-07-23T10:48:17;24.70;1.00
21338;DHT22;10827;50.878;4.382;2022-07-23T10:50:44;25.00;94.70
21338;DHT22;10827;50.878;4.382;2022-07-23T10:56:15;25.40;1.00
21338;DHT22;10827;50.878;4.382;2022-07-23T10:58:49;25.10;10.30
21338;DHT22;10827;50.878;4.382;2022-07-23T11:01:37;24.50;99.90
21338;DHT22;10827;50.878;4.382;2022-07-23T11:04:04;24.50;1.00
21338;DHT22;10827;50.878;4.382;2022-07-23T11:09:40;24.70;99.90
21338;DHT22;10827;50.878;4.382;2022-07-23T11:15:10;25.10;1.00
21338;DHT22;10827;50.878;4.382;2022-07-23T11:17:59;25.00;1.00
21338;DHT22;10827;50.878;4.382;2022-07-23T11:20:25;25.00;1.00
21338;DHT22;10827;50.878;4.382;2022-07-23T11:22:55;24.90;1.00
21338;DHT22;10827;50.878;4.382;2022-07-23T11:27:48;25.30;1.00
21338;DHT22;10827;50.878;4.382;2022-07-23T11:35:43;24.90;1.00
21338;DHT22;10827;50.878;4.382;2022-07-23T11:38:20;25.30;1.00
21338;DHT22;10827;50.878;4.382;2022-07-23T11:40:52;25.20;99.90
21338;DHT22;10827;50.878;4.382;2022-07-23T11:43:20;25.20;99.90
21338;DHT22;10827;50.878;4.382;2022-07-23T11:45:49;25.60;1.00
21338;DHT22;10827;50.878;4.382;2022-07-23T11:48:26;25.50;1.00
21338;DHT22;10827;50.878;4.382;2022-07-23T11:50:53;25.60;99.90
21338;DHT22;10827;50.878;4.382;2022-07-23T11:53:25;25.50;99.90
21338;DHT22;10827;50.878;4.382;2022-07-23T11:55:51;25.80;1.00
21338;DHT22;10827;50.878;4.382;2022-07-23T11:58:17;25.80;99.90
21338;DHT22;10827;50.878;4.382;2022-07-23T12:00:43;25.50;99.90
21338;DHT22;10827;50.878;4.382;2022-07-23T12:03:09;25.70;53.80
21338;DHT22;10827;50.878;4.382;2022-07-23T12:05:36;25.40;99.90
21338;DHT22;10827;50.878;4.382;2022-07-23T12:08:07;25.60;99.90
21338;DHT22;10827;50.878;4.382;2022-07-23T12:10:42;26.10;1.00
21338;DHT22;10827;50.878;4.382;2022-07-23T12:13:10;26.50;99.90
21338;DHT22;10827;50.878;4.382;2022-07-23T12:15:43;26.60;1.00
21338;DHT22;10827;50.878;4.382;2022-07-23T12:18:11;26.80;1.00
21338;DHT22;10827;50.878;4.382;2022-07-23T12:20:43;26.60;1.00
21338;DHT22;10827;50.878;4.382;2022-07-23T12:23:11;26.70;99.90
21338;DHT22;10827;50.878;4.382;2022-07-23T12:25:45;26.70;13.30
21338;DHT22;10827;50.878;4.382;2022-07-23T12:28:16;26.80;1.00
21338;DHT22;10827;50.878;4.382;2022-07-23T12:30:46;26.80;1.00
21338;DHT22;10827;50.878;4.382;2022-07-23T12:35:56;26.70;1.00
21338;DHT22;10827;50.878;4.382;2022-07-23T12:38:24;26.80;1.00
21338;DHT22;10827;50.878;4.382;2022-07-23T12:40:53;27.20;99.90
21338;DHT22;10827;50.878;4.382;2022-07-23T12:46:04;27.70;1.00
21338;DHT22;10827;50.878;4.382;2022-07-23T12:48:32;27.10;1.00
21338;DHT22;10827;50.878;4.382;2022-07-23T12:51:04;27.20;1.00
21338;DHT22;10827;50.878;4.382;2022-07-23T12:53:41;27.30;1.00
21338;DHT22;10827;50.878;4.382;2022-07-23T12:56:13;27.40;99.90
21338;DHT22;10827;50.878;4.382;2022-07-23T13:01:06;27.50;99.90
21338;DHT22;10827;50.878;4.382;2022-07-23T13:06:00;27.70;1.00
21338;DHT22;10827;50.878;4.382;2022-07-23T13:08:29;27.80;1.00
21338;DHT22;10827;50.878;4.382;2022-07-23T13:10:55;28.00;1.00
21338;DHT22;10827;50.878;4.382;2022-07-23T13:13:28;27.50;99.90
21338;DHT22;10827;50.878;4.382;2022-07-23T13:15:55;27.20;99.90
21338;DHT22;10827;50.878;4.382;2022-07-23T13:18:21;27.50;99.90
21338;DHT22;10827;50.878;4.382;2022-07-23T13:20:48;27.70;1.00
21338;DHT22;10827;50.878;4.382;2022-07-23T13:23:15;28.00;99.90
21338;DHT22;10827;50.878;4.382;2022-07-23T13:25:41;28.10;99.90
21338;DHT22;10827;50.878;4.382;2022-07-23T13:28:07;28.90;1.00
21338;DHT22;10827;50.878;4.382;2022-07-23T13:30:33;29.20;1.00
21338;DHT22;10827;50.878;4.382;2022-07-23T13:33:01;29.60;91.60
21338;DHT22;10827;50.878;4.382;2022-07-23T13:35:28;29.60;1.00
21338;DHT22;10827;50.878;4.382;2022-07-23T13:37:54;29.60;99.90
21338;DHT22;10827;50.878;4.382;2022-07-23T13:40:20;29.80;1.00
21338;DHT22;10827;50.878;4.382;2022-07-23T13:42:46;29.90;99.90
21338;DHT22;10827;50.878;4.382;2022-07-23T13:45:12;30.00;99.90
21338;DHT22;10827;50.878;4.382;2022-07-23T13:47:38;30.50;95.40
21338;DHT22;10827;50.878;4.382;2022-07-23T13:50:05;30.20;1.00
21338;DHT22;10827;50.878;4.382;2022-07-23T13:52:31;30.00;1.00
21338;DHT22;10827;50.878;4.382;2022-07-23T13:55:00;29.40;1.00
21338;DHT22;10827;50.878;4.382;2022-07-23T13:57:26;29.30;99.90
21338;DHT22;10827;50.878;4.382;2022-07-23T13:59:53;28.40;1.00
21338;DHT22;10827;50.878;4.382;2022-07-23T14:02:19;28.30;99.90
21338;DHT22;10827;50.878;4.382;2022-07-23T14:04:45;28.60;1.00
21338;DHT22;10827;50.878;4.382;2022-07-23T14:07:11;29.20;99.90
21338;DHT22;10827;50.878;4.382;2022-07-23T14:09:37;26.70;1.00
21338;DHT22;10827;50.878;4.382;2022-07-23T14:12:03;30.00;1.00
21338;DHT22;10827;50.878;4.382;2022-07-23T14:14:29;30.10;1.00
21338;DHT22;10827;50.878;4.382;2022-07-23T14:16:55;30.70;99.90
21338;DHT22;10827;50.878;4.382;2022-07-23T14:19:22;31.30;97.40
21338;DHT22;10827;50.878;4.382;2022-07-23T14:21:47;31.40;1.00
21338;DHT22;10827;50.878;4.382;2022-07-23T14:24:16;32.20;1.00
21338;DHT22;10827;50.878;4.382;2022-07-23T14:26:42;32.60;99.90
21338;DHT22;10827;50.878;4.382;2022-07-23T14:31:34;31.80;99.90
21338;DHT22;10827;50.878;4.382;2022-07-23T14:33:59;31.70;1.00
21338;DHT22;10827;50.878;4.382;2022-07-23T14:36:26;30.70;99.90
21338;DHT22;10827;50.878;4.382;2022-07-23T14:38:52;30.70;99.90
21338;DHT22;10827;50.878;4.382;2022-07-23T14:41:17;30.90;1.00
21338;DHT22;10827;50.878;4.382;2022-07-23T14:43:44;31.10;1.00
21338;DHT22;10827;50.878;4.382;2022-07-23T14:46:11;31.30;1.00
21338;DHT22;10827;50.878;4.382;2022-07-23T14:48:37;31.50;1.00
21338;DHT22;10827;50.878;4.382;2022-07-23T14:51:03;31.40;1.00
21338;DHT22;10827;50.878;4.382;2022-07-23T14:53:29;30.60;1.00
21338;DHT22;10827;50.878;4.382;2022-07-23T14:55:55;30.60;1.00
21338;DHT22;10827;50.878;4.382;2022-07-23T14:58:24;30.40;1.00
21338;DHT22;10827;50.878;4.382;2022-07-23T15:00:50;30.70;1.00
21338;DHT22;10827;50.878;4.382;2022-07-23T15:03:16;31.10;1.00
21338;DHT22;10827;50.878;4.382;2022-07-23T15:05:42;30.50;99.90
21338;DHT22;10827;50.878;4.382;2022-07-23T15:08:09;30.60;99.90
21338;DHT22;10827;50.878;4.382;2022-07-23T15:10:35;30.80;1.00
21338;DHT22;10827;50.878;4.382;2022-07-23T15:15:27;30.70;1.00
21338;DHT22;10827;50.878;4.382;2022-07-23T15:17:58;31.00;1.00
21338;DHT22;10827;50.878;4.382;2022-07-23T15:20:26;31.10;1.00
21338;DHT22;10827;50.878;4.382;2022-07-23T15:22:52;31.00;1.00
21338;DHT22;10827;50.878;4.382;2022-07-23T15:25:17;31.00;1.00
21338;DHT22;10827;50.878;4.382;2022-07-23T15:27:43;32.00;1.00
21338;DHT22;10827;50.878;4.382;2022-07-23T15:30:09;33.30;1.00
21338;DHT22;10827;50.878;4.382;2022-07-23T15:32:35;33.40;1.00
21338;DHT22;10827;50.878;4.382;2022-07-23T15:35:01;32.50;1.00
21338;DHT22;10827;50.878;4.382;2022-07-23T15:37:30;32.20;1.00
21338;DHT22;10827;50.878;4.382;2022-07-23T15:39:56;32.10;1.00
21338;DHT22;10827;50.878;4.382;2022-07-23T15:42:21;32.00;1.00
21338;DHT22;10827;50.878;4.382;2022-07-23T15:44:47;31.90;1.00
21338;DHT22;10827;50.878;4.382;2022-07-23T15:47:15;31.80;1.00
21338;DHT22;10827;50.878;4.382;2022-07-23T15:49:41;31.20;1.00
21338;DHT22;10827;50.878;4.382;2022-07-23T15:52:07;30.90;1.00
21338;DHT22;10827;50.878;4.382;2022-07-23T15:54:35;31.50;1.00
21338;DHT22;10827;50.878;4.382;2022-07-23T15:57:02;32.40;1.00
21338;DHT22;10827;50.878;4.382;2022-07-23T15:59:29;33.10;1.00
21338;DHT22;10827;50.878;4.382;2022-07-23T16:01:54;33.60;1.00
21338;DHT22;10827;50.878;4.382;2022-07-23T16:04:20;32.20;1.00
21338;DHT22;10827;50.878;4.382;2022-07-23T16:06:46;32.10;1.00
21338;DHT22;10827;50.878;4.382;2022-07-23T16:09:12;32.40;1.00
21338;DHT22;10827;50.878;4.382;2022-07-23T16:11:37;33.10;1.00
21338;DHT22;10827;50.878;4.382;2022-07-23T16:14:03;34.10;1.00
21338;DHT22;10827;50.878;4.382;2022-07-23T16:16:29;34.50;1.00
21338;DHT22;10827;50.878;4.382;2022-07-23T16:18:55;34.20;1.00
21338;DHT22;10827;50.878;4.382;2022-07-23T16:21:22;34.10;99.90
21338;DHT22;10827;50.878;4.382;2022-07-23T16:23:48;33.80;99.90
21338;DHT22;10827;50.878;4.382;2022-07-23T16:26:14;33.80;99.90
21338;DHT22;10827;50.878;4.382;2022-07-23T16:28:41;34.00;99.90
21338;DHT22;10827;50.878;4.382;2022-07-23T16:31:07;34.00;99.90
21338;DHT22;10827;50.878;4.382;2022-07-23T16:33:33;33.80;99.90
21338;DHT22;10827;50.878;4.382;2022-07-23T16:35:59;34.00;1.00
21338;DHT22;10827;50.878;4.382;2022-07-23T16:38:25;34.20;99.90
21338;DHT22;10827;50.878;4.382;2022-07-23T16:40:51;34.20;99.90
21338;DHT22;10827;50.878;4.382;2022-07-23T16:43:17;34.70;99.90
21338;DHT22;10827;50.878;4.382;2022-07-23T16:45:44;31.10;99.90
21338;DHT22;10827;50.878;4.382;2022-07-23T16:48:11;34.10;1.00
21338;DHT22;10827;50.878;4.382;2022-07-23T16:50:36;34.10;99.90
21338;DHT22;10827;50.878;4.382;2022-07-23T16:53:02;34.40;99.90
21338;DHT22;10827;50.878;4.382;2022-07-23T16:55:28;34.50;99.90
21338;DHT22;10827;50.878;4.382;2022-07-23T16:57:55;34.50;99.90
21338;DHT22;10827;50.878;4.382;2022-07-23T17:00:21;33.90;1.00
21338;DHT22;10827;50.878;4.382;2022-07-23T17:02:47;34.00;99.90
21338;DHT22;10827;50.878;4.382;2022-07-23T17:05:13;32.90;99.90
21338;DHT22;10827;50.878;4.382;2022-07-23T17:07:39;33.30;99.90
21338;DHT22;10827;50.878;4.382;2022-07-23T17:10:07;33.30;1.00
21338;DHT22;10827;50.878;4.382;2022-07-23T17:12:33;33.20;99.90
21338;DHT22;10827;50.878;4.382;2022-07-23T17:14:59;32.90;99.90
21338;DHT22;10827;50.878;4.382;2022-07-23T17:17:25;31.70;1.00
21338;DHT22;10827;50.878;4.382;2022-07-23T17:19:50;31.30;1.00
21338;DHT22;10827;50.878;4.382;2022-07-23T17:22:16;30.20;1.00
21338;DHT22;10827;50.878;4.382;2022-07-23T17:24:43;30.00;1.00
21338;DHT22;10827;50.878;4.382;2022-07-23T17:27:09;29.90;99.90
21338;DHT22;10827;50.878;4.382;2022-07-23T17:29:35;30.40;99.90